Time;durP1;ratioP1;P1;durP2;ratioP2;P2;SDS_P1;SDS_P2;PMS_P1;PMS_P2;Temp;Humidity;BMP_temperature;BMP_pressure;BME280_temperature;BME280_humidity;BME280_pressure;Samples;Min_cycle;Max_cycle;Signal;HPM_P1;HPM_P2
2023/11/21 00:02:04;;;;;;;;;;;8.30;92.10;;;;;;5088830;28;20408;-77
2023/11/21 00:04:30;;;;;;;;;;;8.30;92.10;;;;;;5088675;28;19912;-77
2023/11/21 00:06:55;;;;;;;;;;;8.30;92.10;;;;;;5087373;28;19912;-77
2023/11/21 00:09:21;;;;;;;;;;;8.30;92.10;;;;;;5088660;28;20279;-77
2023/11/21 00:11:47;;;;;;;;;;;8.30;92.10;;;;;;5088441;28;20380;-77
2023/11/21 00:14:14;;;;;;;;;;;8.30;92.10;;;;;;5088285;28;19912;-77
2023/11/21 00:16:40;;;;;;;;;;;8.30;92.10;;;;;;5088571;28;19987;-77
2023/11/21 00:19:05;;;;;;;;;;;8.30;92.00;;;;;;5088383;28;20353;-77
2023/11/21 00:21:31;;;;;;;;;;;8.30;92.00;;;;;;5088225;28;19912;-78
2023/11/21 00:23:57;;;;;;;;;;;8.20;92.00;;;;;;5088349;28;19947;-77
2023/11/21 00:26:24;;;;;;;;;;;8.20;92.00;;;;;;5087432;28;19962;-77
2023/11/21 00:28:50;;;;;;;;;;;8.30;92.00;;;;;;5087001;28;19912;-77
2023/11/21 00:31:15;;;;;;;;;;;8.20;92.00;;;;;;5088200;28;19996;-77
2023/11/21 00:33:41;;;;;;;;;;;8.20;92.00;;;;;;5088176;28;20326;-77
2023/11/21 00:36:09;;;;;;;;;;;8.20;92.00;;;;;;5087965;28;20352;-77
2023/11/21 00:38:40;;;;;;;;;;;8.20;92.00;;;;;;5088134;28;20284;-77
2023/11/21 00:41:06;;;;;;;;;;;8.20;91.90;;;;;;5088278;28;20343;-77
2023/11/21 00:43:33;;;;;;;;;;;8.10;92.00;;;;;;5069990;28;19912;-77
2023/11/21 00:45:59;;;;;;;;;;;8.10;92.00;;;;;;5088115;28;19916;-77
2023/11/21 00:48:24;;;;;;;;;;;8.10;92.00;;;;;;5086631;28;19912;-77
2023/11/21 00:50:50;;;;;;;;;;;8.10;92.00;;;;;;5087904;28;20009;-78
2023/11/21 00:53:15;;;;;;;;;;;8.10;92.00;;;;;;5088015;28;20364;-78
2023/11/21 00:55:41;;;;;;;;;;;8.10;92.00;;;;;;5086652;28;19916;-77
2023/11/21 00:58:07;;;;;;;;;;;8.00;92.00;;;;;;5087895;28;19920;-77
2023/11/21 01:00:33;;;;;;;;;;;8.10;92.00;;;;;;5088022;28;20033;-77
2023/11/21 01:02:59;;;;;;;;;;;8.00;92.00;;;;;;5087847;28;20399;-77
2023/11/21 01:05:24;;;;;;;;;;;8.00;92.00;;;;;;5089499;28;19912;-77
2023/11/21 01:07:50;;;;;;;;;;;8.00;92.00;;;;;;5091870;28;19913;-77
2023/11/21 01:10:17;;;;;;;;;;;8.00;92.00;;;;;;5092138;28;19919;-77
2023/11/21 01:12:42;;;;;;;;;;;8.00;92.00;;;;;;5091955;28;19962;-77
2023/11/21 01:15:08;;;;;;;;;;;7.90;91.90;;;;;;5091825;28;20372;-77
2023/11/21 01:17:34;;;;;;;;;;;7.90;91.90;;;;;;5091709;28;19916;-77
2023/11/21 01:20:00;;;;;;;;;;;7.90;91.90;;;;;;5091735;28;19940;-77
2023/11/21 01:22:26;;;;;;;;;;;7.90;91.90;;;;;;5091511;28;19999;-77
2023/11/21 01:24:54;;;;;;;;;;;7.90;91.90;;;;;;5090340;28;19912;-77
2023/11/21 01:27:20;;;;;;;;;;;7.80;91.90;;;;;;5091614;28;19908;-77
2023/11/21 01:29:45;;;;;;;;;;;7.80;91.90;;;;;;5091497;28;19935;-77
2023/11/21 01:32:11;;;;;;;;;;;7.80;91.90;;;;;;5091564;28;19914;-77
2023/11/21 01:34:37;;;;;;;;;;;7.80;91.90;;;;;;5091384;28;19923;-77
2023/11/21 01:37:04;;;;;;;;;;;7.80;91.90;;;;;;5091471;28;19919;-77
2023/11/21 01:39:30;;;;;;;;;;;7.80;91.90;;;;;;5091467;28;20007;-77
2023/11/21 01:41:58;;;;;;;;;;;7.70;91.90;;;;;;5091387;28;20062;-77
2023/11/21 01:44:24;;;;;;;;;;;7.80;91.90;;;;;;5091431;28;20291;-77
2023/11/21 01:46:50;;;;;;;;;;;7.70;91.90;;;;;;5091244;28;19916;-77
2023/11/21 01:49:17;;;;;;;;;;;7.70;91.90;;;;;;5089872;28;20384;-77
2023/11/21 01:51:44;;;;;;;;;;;7.70;91.90;;;;;;5091094;28;19916;-78
2023/11/21 01:54:11;;;;;;;;;;;7.70;91.90;;;;;;5091233;28;19954;-77
2023/11/21 01:56:37;;;;;;;;;;;7.70;92.10;;;;;;5091018;28;19932;-77
2023/11/21 01:59:02;;;;;;;;;;;7.70;92.00;;;;;;5090911;28;19912;-77
2023/11/21 02:01:28;;;;;;;;;;;7.70;92.00;;;;;;5090810;28;19916;-77
2023/11/21 02:03:53;;;;;;;;;;;7.70;91.90;;;;;;5090926;28;19960;-77
2023/11/21 02:06:19;;;;;;;;;;;7.70;91.90;;;;;;5090851;28;19921;-77
2023/11/21 02:08:45;;;;;;;;;;;7.70;91.90;;;;;;5090750;28;19912;-77
2023/11/21 02:11:12;;;;;;;;;;;7.70;91.90;;;;;;5090844;28;19913;-77
2023/11/21 02:13:38;;;;;;;;;;;7.60;91.90;;;;;;5090767;28;19908;-77
2023/11/21 02:16:05;;;;;;;;;;;7.60;91.90;;;;;;5089974;28;19923;-77
2023/11/21 02:18:31;;;;;;;;;;;7.60;91.90;;;;;;5088777;28;19919;-77
2023/11/21 02:20:56;;;;;;;;;;;7.60;91.90;;;;;;5090489;28;19916;-77
2023/11/21 02:23:23;;;;;;;;;;;7.60;91.90;;;;;;5090484;28;19951;-77
2023/11/21 02:25:48;;;;;;;;;;;7.60;91.90;;;;;;5090509;28;19914;-77
2023/11/21 02:28:16;;;;;;;;;;;7.60;91.90;;;;;;5090550;28;19922;-77
2023/11/21 02:30:42;;;;;;;;;;;7.50;91.80;;;;;;5090425;28;19951;-77
2023/11/21 02:33:07;;;;;;;;;;;7.60;91.80;;;;;;5090511;28;19917;-77
2023/11/21 02:35:34;;;;;;;;;;;7.50;91.80;;;;;;5090367;28;19916;-77
2023/11/21 02:38:00;;;;;;;;;;;7.50;91.80;;;;;;5089123;28;20407;-77
2023/11/21 02:40:26;;;;;;;;;;;7.40;91.70;;;;;;5090303;28;19908;-77
2023/11/21 02:42:52;;;;;;;;;;;7.40;91.70;;;;;;5090205;28;19955;-77
2023/11/21 02:45:18;;;;;;;;;;;7.40;91.80;;;;;;5090267;28;19941;-77
2023/11/21 02:47:44;;;;;;;;;;;7.40;91.70;;;;;;5090072;28;19970;-77
2023/11/21 02:50:10;;;;;;;;;;;7.30;91.70;;;;;;5088602;28;19912;-77
2023/11/21 02:52:36;;;;;;;;;;;7.30;91.70;;;;;;5088778;28;20249;-77
2023/11/21 02:55:02;;;;;;;;;;;7.30;91.70;;;;;;5089735;28;19945;-77
2023/11/21 02:57:28;;;;;;;;;;;7.30;91.70;;;;;;5088607;28;19931;-77
2023/11/21 02:59:54;;;;;;;;;;;7.30;91.70;;;;;;5089966;28;19912;-77
2023/11/21 03:02:20;;;;;;;;;;;7.30;91.80;;;;;;5088302;28;20321;-77
2023/11/21 03:04:45;;;;;;;;;;;7.30;91.80;;;;;;5089774;28;19916;-77
2023/11/21 03:07:11;;;;;;;;;;;7.30;91.80;;;;;;5089475;28;20275;-77
2023/11/21 03:09:37;;;;;;;;;;;7.30;91.70;;;;;;5089475;28;20330;-77
2023/11/21 03:12:02;;;;;;;;;;;7.30;91.70;;;;;;5088075;28;20339;-77
2023/11/21 03:14:28;;;;;;;;;;;7.20;91.70;;;;;;5089339;28;19912;-77
2023/11/21 03:16:53;;;;;;;;;;;7.20;91.60;;;;;;5089483;28;19999;-77
2023/11/21 03:19:19;;;;;;;;;;;7.10;91.60;;;;;;5089185;28;19912;-77
2023/11/21 03:21:44;;;;;;;;;;;7.10;91.60;;;;;;5089519;28;19912;-77
2023/11/21 03:24:10;;;;;;;;;;;7.10;91.60;;;;;;5089416;28;19923;-77
2023/11/21 03:26:37;;;;;;;;;;;7.10;91.60;;;;;;5089216;28;19912;-77
2023/11/21 03:29:03;;;;;;;;;;;7.00;91.60;;;;;;5088705;28;20037;-77
2023/11/21 03:31:28;;;;;;;;;;;7.00;91.60;;;;;;5089180;28;19969;-77
2023/11/21 03:33:54;;;;;;;;;;;6.90;91.50;;;;;;5088949;28;19912;-77
2023/11/21 03:36:20;;;;;;;;;;;6.90;91.50;;;;;;5088976;28;20296;-77
2023/11/21 03:38:45;;;;;;;;;;;6.90;91.50;;;;;;5088959;28;19908;-77
2023/11/21 03:41:11;;;;;;;;;;;6.80;91.50;;;;;;5089130;28;20105;-77
2023/11/21 03:43:36;;;;;;;;;;;6.80;91.50;;;;;;5088877;28;19912;-77
2023/11/21 03:46:02;;;;;;;;;;;6.70;91.50;;;;;;5088763;28;20687;-77
2023/11/21 03:48:28;;;;;;;;;;;6.70;91.60;;;;;;5088633;28;20441;-77
2023/11/21 03:50:53;;;;;;;;;;;6.70;91.60;;;;;;5087487;28;19916;-77
2023/11/21 03:53:19;;;;;;;;;;;6.70;91.60;;;;;;5088708;28;20253;-77
2023/11/21 03:55:44;;;;;;;;;;;6.60;91.60;;;;;;5088870;28;19923;-77
2023/11/21 03:58:10;;;;;;;;;;;6.60;91.60;;;;;;5087449;28;20315;-77
2023/11/21 04:00:35;;;;;;;;;;;6.60;91.60;;;;;;5088607;28;20278;-77
2023/11/21 04:03:01;;;;;;;;;;;6.60;91.60;;;;;;5088308;28;19923;-77
2023/11/21 04:05:26;;;;;;;;;;;6.60;91.60;;;;;;5088729;28;19959;-77
2023/11/21 04:07:52;;;;;;;;;;;6.60;91.60;;;;;;5088491;28;20197;-77
2023/11/21 04:10:20;;;;;;;;;;;6.70;91.60;;;;;;5087900;28;21397;-77
2023/11/21 04:12:45;;;;;;;;;;;6.70;91.60;;;;;;5087020;28;19912;-77
2023/11/21 04:15:13;;;;;;;;;;;6.70;91.50;;;;;;5088119;28;19920;-76
2023/11/21 04:17:39;;;;;;;;;;;6.60;91.50;;;;;;5088145;28;19934;-76
2023/11/21 04:20:08;;;;;;;;;;;6.60;91.40;;;;;;5086942;28;19908;-76
2023/11/21 04:22:36;;;;;;;;;;;6.60;91.40;;;;;;5088315;28;20312;-76
2023/11/21 04:25:01;;;;;;;;;;;6.50;91.40;;;;;;5088144;28;19908;-76
2023/11/21 04:27:27;;;;;;;;;;;6.50;91.40;;;;;;5088094;28;20036;-76
2023/11/21 04:29:52;;;;;;;;;;;6.50;91.40;;;;;;5088119;28;20015;-76
2023/11/21 04:32:19;;;;;;;;;;;6.40;91.50;;;;;;5088584;28;20368;-76
2023/11/21 04:34:44;;;;;;;;;;;6.40;91.50;;;;;;5088069;28;19919;-76
2023/11/21 04:37:10;;;;;;;;;;;6.40;91.60;;;;;;5088231;28;19937;-76
2023/11/21 04:39:36;;;;;;;;;;;6.50;91.60;;;;;;5087312;28;19931;-76
2023/11/21 04:42:02;;;;;;;;;;;6.50;91.60;;;;;;5088108;28;19912;-76
2023/11/21 04:44:27;;;;;;;;;;;6.50;91.60;;;;;;5087991;28;19912;-76
2023/11/21 04:46:53;;;;;;;;;;;6.50;91.50;;;;;;5087971;28;19912;-76
2023/11/21 04:49:18;;;;;;;;;;;6.50;91.60;;;;;;5088057;28;19917;-77
2023/11/21 04:51:44;;;;;;;;;;;6.50;91.60;;;;;;5087874;28;20376;-76
2023/11/21 04:54:10;;;;;;;;;;;6.50;91.60;;;;;;5088055;28;20276;-77
2023/11/21 04:56:35;;;;;;;;;;;6.60;91.60;;;;;;5087941;28;19916;-76
2023/11/21 04:59:01;;;;;;;;;;;6.60;91.60;;;;;;5087883;28;19913;-77
2023/11/21 05:01:27;;;;;;;;;;;6.60;91.60;;;;;;5087566;28;20350;-76
2023/11/21 05:03:52;;;;;;;;;;;6.70;91.60;;;;;;5086316;28;19916;-76
2023/11/21 05:06:18;;;;;;;;;;;6.70;91.60;;;;;;5087942;28;19930;-77
2023/11/21 05:08:43;;;;;;;;;;;6.70;91.60;;;;;;5088060;28;20111;-77
2023/11/21 05:11:10;;;;;;;;;;;6.70;91.60;;;;;;5088695;28;19977;-76
2023/11/21 05:13:36;;;;;;;;;;;6.70;91.60;;;;;;5087904;28;19934;-77
2023/11/21 05:16:04;;;;;;;;;;;6.70;91.60;;;;;;5087715;28;19916;-77
2023/11/21 05:18:29;;;;;;;;;;;6.70;91.60;;;;;;5088219;28;20334;-77
2023/11/21 05:20:55;;;;;;;;;;;6.80;91.60;;;;;;5087893;28;20300;-77
2023/11/21 05:23:21;;;;;;;;;;;6.80;91.60;;;;;;5087759;28;19965;-77
2023/11/21 05:25:46;;;;;;;;;;;6.80;91.60;;;;;;5088075;28;19935;-77
2023/11/21 05:28:12;;;;;;;;;;;6.80;91.60;;;;;;5087697;28;20392;-77
2023/11/21 05:30:40;;;;;;;;;;;6.80;91.60;;;;;;5087664;28;19935;-77
2023/11/21 05:33:06;;;;;;;;;;;6.80;91.50;;;;;;5087850;28;19952;-77
2023/11/21 05:35:31;;;;;;;;;;;6.80;91.50;;;;;;5087558;28;19955;-77
2023/11/21 05:37:57;;;;;;;;;;;6.80;91.50;;;;;;5086495;28;20379;-77
2023/11/21 05:40:23;;;;;;;;;;;6.80;91.50;;;;;;5087595;28;20403;-77
2023/11/21 05:42:51;;;;;;;;;;;6.80;91.50;;;;;;5087616;28;20430;-77
2023/11/21 05:45:16;;;;;;;;;;;6.80;91.50;;;;;;5087512;28;20202;-77
2023/11/21 05:47:43;;;;;;;;;;;6.80;91.50;;;;;;5086242;28;19946;-77
2023/11/21 05:50:12;;;;;;;;;;;6.70;91.50;;;;;;5087542;28;19908;-77
2023/11/21 05:52:39;;;;;;;;;;;6.70;91.50;;;;;;5089344;28;19912;-77
2023/11/21 05:55:07;;;;;;;;;;;6.70;91.50;;;;;;5090928;28;20025;-77
2023/11/21 05:57:37;;;;;;;;;;;6.70;91.50;;;;;;5089472;28;19966;-77
2023/11/21 06:00:09;;;;;;;;;;;6.70;91.50;;;;;;5091038;28;19912;-77
2023/11/21 06:02:35;;;;;;;;;;;6.70;91.50;;;;;;5090740;28;19929;-77
2023/11/21 06:05:01;;;;;;;;;;;6.60;91.50;;;;;;5089751;28;20253;-77
2023/11/21 06:07:26;;;;;;;;;;;6.60;91.50;;;;;;5090786;28;19920;-77
2023/11/21 06:09:52;;;;;;;;;;;6.60;91.50;;;;;;5090828;28;19916;-77
2023/11/21 06:12:17;;;;;;;;;;;6.60;91.50;;;;;;5089366;28;20322;-77
2023/11/21 06:14:43;;;;;;;;;;;6.60;91.50;;;;;;5090520;28;20015;-78
2023/11/21 06:17:09;;;;;;;;;;;6.60;91.50;;;;;;5089284;28;19938;-76
2023/11/21 06:19:35;;;;;;;;;;;6.60;91.50;;;;;;5090497;28;20454;-76
2023/11/21 06:22:01;;;;;;;;;;;6.60;91.60;;;;;;5090636;28;20002;-78
2023/11/21 06:24:27;;;;;;;;;;;6.60;91.60;;;;;;5089229;28;19921;-78
2023/11/21 06:26:53;;;;;;;;;;;6.60;91.60;;;;;;5090459;28;19909;-79
2023/11/21 06:29:19;;;;;;;;;;;6.60;91.60;;;;;;5089077;28;19999;-76
2023/11/21 06:31:46;;;;;;;;;;;6.60;91.60;;;;;;5090359;28;19912;-76
2023/11/21 06:34:12;;;;;;;;;;;6.60;91.60;;;;;;5089073;28;19916;-76
2023/11/21 06:36:37;;;;;;;;;;;6.70;91.60;;;;;;5090134;28;20156;-76
2023/11/21 06:39:08;;;;;;;;;;;6.70;91.60;;;;;;5089811;28;20007;-76
2023/11/21 06:41:34;;;;;;;;;;;6.70;91.60;;;;;;5089065;28;19920;-76
2023/11/21 06:44:00;;;;;;;;;;;6.70;91.50;;;;;;5089974;28;19995;-76
2023/11/21 06:46:25;;;;;;;;;;;6.70;91.50;;;;;;5090080;28;20010;-76
2023/11/21 06:48:51;;;;;;;;;;;6.70;91.50;;;;;;5089770;28;20069;-76
2023/11/21 06:51:16;;;;;;;;;;;6.60;91.50;;;;;;5089775;28;19916;-76
2023/11/21 06:53:42;;;;;;;;;;;6.60;91.50;;;;;;5089818;28;19908;-76
2023/11/21 06:56:17;;;;;;;;;;;6.60;91.50;;;;;;5089730;28;20356;-76
2023/11/21 06:58:45;;;;;;;;;;;6.50;91.40;;;;;;5089540;28;19962;-79
2023/11/21 07:01:11;;;;;;;;;;;6.50;91.40;;;;;;5089688;28;19966;-77
2023/11/21 07:03:37;;;;;;;;;;;6.40;91.40;;;;;;5087653;28;19920;-76
2023/11/21 07:06:03;;;;;;;;;;;6.40;91.40;;;;;;5088053;28;19931;-76
2023/11/21 07:08:28;;;;;;;;;;;6.30;91.40;;;;;;5089275;28;19913;-76
2023/11/21 07:10:54;;;;;;;;;;;6.30;91.40;;;;;;5090098;28;19913;-77
2023/11/21 07:13:19;;;;;;;;;;;6.30;91.40;;;;;;5091470;28;19912;-77
2023/11/21 07:15:45;;;;;;;;;;;6.20;91.40;;;;;;5089334;28;20261;-77
2023/11/21 07:18:11;;;;;;;;;;;6.20;91.40;;;;;;5089065;28;19920;-77
2023/11/21 07:20:37;;;;;;;;;;;6.10;91.40;;;;;;5089322;28;19944;-77
2023/11/21 07:23:03;;;;;;;;;;;6.10;91.40;;;;;;5089367;28;20441;-77
2023/11/21 07:25:29;;;;;;;;;;;6.10;91.40;;;;;;5087972;28;20323;-78
2023/11/21 07:27:55;;;;;;;;;;;6.00;91.40;;;;;;5087726;28;19916;-77
2023/11/21 07:30:22;;;;;;;;;;;6.00;91.40;;;;;;5089219;28;19912;-77
2023/11/21 07:32:48;;;;;;;;;;;6.00;91.40;;;;;;5089018;28;19916;-78
2023/11/21 07:35:14;;;;;;;;;;;5.90;91.40;;;;;;5088731;28;19912;-77
2023/11/21 07:37:39;;;;;;;;;;;5.90;91.40;;;;;;5089129;28;19955;-77
2023/11/21 07:40:05;;;;;;;;;;;5.90;91.40;;;;;;5088892;28;20328;-78
2023/11/21 07:42:31;;;;;;;;;;;5.90;91.40;;;;;;5087692;28;19955;-76
2023/11/21 07:44:56;;;;;;;;;;;5.90;91.40;;;;;;5086943;28;19987;-77
2023/11/21 07:47:22;;;;;;;;;;;5.90;91.50;;;;;;5086914;28;19920;-77
2023/11/21 07:49:48;;;;;;;;;;;5.90;91.40;;;;;;5088210;28;19923;-77
2023/11/21 07:52:15;;;;;;;;;;;5.90;91.40;;;;;;5088217;28;19990;-78
2023/11/21 07:54:41;;;;;;;;;;;5.90;91.40;;;;;;5087889;28;20265;-78
2023/11/21 07:57:07;;;;;;;;;;;5.90;91.40;;;;;;5088869;28;20266;-77
2023/11/21 07:59:33;;;;;;;;;;;5.90;91.40;;;;;;5088297;28;20018;-77
2023/11/21 08:01:59;;;;;;;;;;;5.90;91.40;;;;;;5087726;28;19939;-76
2023/11/21 08:04:24;;;;;;;;;;;5.90;91.40;;;;;;5087664;28;19957;-75
2023/11/21 08:06:50;;;;;;;;;;;5.90;91.50;;;;;;5088369;28;19962;-76
2023/11/21 08:09:17;;;;;;;;;;;5.90;91.50;;;;;;5087478;28;19950;-78
2023/11/21 08:11:43;;;;;;;;;;;5.90;91.50;;;;;;5087328;28;19978;-79
2023/11/21 08:14:08;;;;;;;;;;;5.90;91.50;;;;;;5087503;28;19954;-78
2023/11/21 08:16:34;;;;;;;;;;;5.90;91.50;;;;;;5087503;28;19920;-78
2023/11/21 08:18:59;;;;;;;;;;;6.00;91.50;;;;;;5086095;28;20364;-74
2023/11/21 08:21:28;;;;;;;;;;;6.00;91.50;;;;;;5087353;28;19912;-78
2023/11/21 08:23:55;;;;;;;;;;;6.00;91.50;;;;;;5085421;28;19916;-78
2023/11/21 08:26:21;;;;;;;;;;;6.00;91.50;;;;;;5086990;28;19963;-78
2023/11/21 08:28:47;;;;;;;;;;;6.10;91.50;;;;;;5087252;28;19920;-78
2023/11/21 08:31:12;;;;;;;;;;;6.20;91.60;;;;;;5087724;28;20298;-78
2023/11/21 08:33:38;;;;;;;;;;;6.20;91.60;;;;;;5087667;28;20380;-77
2023/11/21 08:36:13;;;;;;;;;;;6.20;91.60;;;;;;5087444;28;20019;-78
2023/11/21 08:38:38;;;;;;;;;;;6.30;91.60;;;;;;5087508;28;19912;-77
2023/11/21 08:41:07;;;;;;;;;;;6.30;91.60;;;;;;5087438;28;19908;-78
2023/11/21 08:43:34;;;;;;;;;;;6.40;91.70;;;;;;5087672;28;20280;-77
2023/11/21 08:46:00;;;;;;;;;;;6.40;91.70;;;;;;5086616;28;19912;-79
2023/11/21 08:48:26;;;;;;;;;;;6.50;91.70;;;;;;5086195;28;19953;-77
2023/11/21 08:50:51;;;;;;;;;;;6.60;91.80;;;;;;5087397;28;20357;-78
2023/11/21 08:53:17;;;;;;;;;;;6.70;91.80;;;;;;5087020;28;19938;-78
2023/11/21 08:55:44;;;;;;;;;;;6.80;91.90;;;;;;5087194;28;19916;-79
2023/11/21 08:58:09;;;;;;;;;;;6.90;92.00;;;;;;5087094;28;19919;-77
2023/11/21 09:00:36;;;;;;;;;;;7.10;92.30;;;;;;5078950;28;19916;-80
2023/11/21 09:03:03;;;;;;;;;;;7.70;92.90;;;;;;5065542;28;19924;-75
2023/11/21 09:05:28;;;;;;;;;;;8.40;93.20;;;;;;5075067;28;20276;-77
2023/11/21 09:07:54;;;;;;;;;;;9.10;93.20;;;;;;5077707;28;19913;-77
2023/11/21 09:10:20;;;;;;;;;;;9.80;93.30;;;;;;5075438;28;20314;-79
2023/11/21 09:12:46;;;;;;;;;;;10.50;93.20;;;;;;5075496;28;19940;-77
2023/11/21 09:15:11;;;;;;;;;;;11.10;93.10;;;;;;5077761;28;19970;-79
2023/11/21 09:17:37;;;;;;;;;;;11.50;92.80;;;;;;5075893;28;19928;-79
2023/11/21 09:20:05;;;;;;;;;;;11.70;92.40;;;;;;5076333;28;19971;-79
2023/11/21 09:22:31;;;;;;;;;;;11.90;92.60;;;;;;5077280;28;19912;-67
2023/11/21 09:24:57;;;;;;;;;;;12.10;92.60;;;;;;5073428;28;19917;-78
2023/11/21 09:27:23;;;;;;;;;;;12.20;92.50;;;;;;5071605;28;20356;-79
2023/11/21 09:29:49;;;;;;;;;;;12.30;92.60;;;;;;5071518;28;19920;-79
2023/11/21 09:32:16;;;;;;;;;;;12.50;92.70;;;;;;5069443;28;19916;-79
2023/11/21 09:34:41;;;;;;;;;;;12.70;93.00;;;;;;5071380;28;20284;-78
2023/11/21 09:37:07;;;;;;;;;;;13.20;93.30;;;;;;5071371;28;19927;-80
2023/11/21 09:39:34;;;;;;;;;;;13.70;93.40;;;;;;5070290;28;19930;-80
2023/11/21 09:42:21;;;;;;;;;;;14.20;93.40;;;;;;5070257;28;19919;-79
2023/11/21 09:44:56;;;;;;;;;;;14.60;93.20;;;;;;5059520;28;19919;-79
2023/11/21 09:47:22;;;;;;;;;;;15.00;93.10;;;;;;5069924;28;19931;-65
2023/11/21 09:49:49;;;;;;;;;;;15.30;93.10;;;;;;5069851;28;20302;-80
2023/11/21 09:52:27;;;;;;;;;;;15.30;92.90;;;;;;5069896;28;19913;-80
2023/11/21 09:54:53;;;;;;;;;;;15.40;93.10;;;;;;5069946;28;19966;-80
2023/11/21 09:57:21;;;;;;;;;;;15.70;93.30;;;;;;5069912;28;19916;-79
2023/11/21 09:59:50;;;;;;;;;;;15.90;93.40;;;;;;5074725;28;20305;-78
2023/11/21 10:02:18;;;;;;;;;;;16.10;93.50;;;;;;5091764;28;19920;-79
2023/11/21 10:04:45;;;;;;;;;;;16.50;93.60;;;;;;5092647;28;19946;-79
2023/11/21 10:07:12;;;;;;;;;;;16.90;93.60;;;;;;5091905;28;20007;-80
2023/11/21 10:09:38;;;;;;;;;;;17.10;93.50;;;;;;5089021;28;19912;-79
2023/11/21 10:12:06;;;;;;;;;;;17.40;93.60;;;;;;5070245;28;19912;-80
2023/11/21 10:14:32;;;;;;;;;;;17.60;93.80;;;;;;5070918;28;20383;-79
2023/11/21 10:16:58;;;;;;;;;;;17.90;93.70;;;;;;5075559;28;19927;-73
2023/11/21 10:19:26;;;;;;;;;;;18.10;93.70;;;;;;5078842;28;19913;-73
2023/11/21 10:21:52;;;;;;;;;;;18.40;93.70;;;;;;5078581;28;19911;-73
2023/11/21 10:24:18;;;;;;;;;;;18.60;93.70;;;;;;5080684;28;19919;-73
2023/11/21 10:26:45;;;;;;;;;;;18.90;93.80;;;;;;5079173;28;19951;-72
2023/11/21 10:29:16;;;;;;;;;;;19.10;93.70;;;;;;5078794;28;19914;-72
2023/11/21 10:31:42;;;;;;;;;;;19.30;93.60;;;;;;5078383;28;19909;-73
2023/11/21 10:34:14;;;;;;;;;;;19.40;93.60;;;;;;5079832;28;19923;-73
2023/11/21 10:36:41;;;;;;;;;;;19.50;93.70;;;;;;5078715;28;19912;-72
2023/11/21 10:39:06;;;;;;;;;;;19.70;93.80;;;;;;5078579;28;19912;-73
2023/11/21 10:41:32;;;;;;;;;;;19.90;93.80;;;;;;5080590;28;19929;-73
2023/11/21 10:43:58;;;;;;;;;;;19.90;93.70;;;;;;5077984;28;19947;-73
2023/11/21 10:46:25;;;;;;;;;;;19.90;93.60;;;;;;5080820;28;19912;-73
2023/11/21 10:48:56;;;;;;;;;;;19.70;93.60;;;;;;5078461;28;19951;-72
2023/11/21 10:51:21;;;;;;;;;;;19.50;93.90;;;;;;5078390;28;19913;-73
2023/11/21 10:53:48;;;;;;;;;;;19.50;94.10;;;;;;5077084;28;19916;-74
2023/11/21 10:56:17;;;;;;;;;;;19.70;94.40;;;;;;5078731;28;19920;-73
2023/11/21 10:58:43;;;;;;;;;;;19.90;94.50;;;;;;5080025;28;19917;-74
2023/11/21 11:01:11;;;;;;;;;;;20.10;94.40;;;;;;5076796;28;19913;-76
2023/11/21 11:03:37;;;;;;;;;;;20.20;94.30;;;;;;5073356;28;19921;-75
2023/11/21 11:06:11;;;;;;;;;;;20.10;94.00;;;;;;5086580;28;19936;-72
2023/11/21 11:08:40;;;;;;;;;;;20.00;93.80;;;;;;5090137;28;20407;-74
2023/11/21 11:11:06;;;;;;;;;;;19.90;94.10;;;;;;5071475;28;19912;-70
2023/11/21 11:13:32;;;;;;;;;;;19.80;94.10;;;;;;5089306;28;20400;-71
2023/11/21 11:16:00;;;;;;;;;;;19.60;94.00;;;;;;5089366;28;19927;-72
2023/11/21 11:18:26;;;;;;;;;;;19.50;94.10;;;;;;5088277;28;19908;-72
2023/11/21 11:20:53;;;;;;;;;;;19.50;94.20;;;;;;5089416;28;19908;-72
2023/11/21 11:23:29;;;;;;;;;;;19.50;94.10;;;;;;5089039;28;19940;-71
2023/11/21 11:26:12;;;;;;;;;;;19.70;94.30;;;;;;5088061;28;20195;-72
2023/11/21 11:28:47;;;;;;;;;;;19.90;94.30;;;;;;5089078;28;19915;-72
2023/11/21 11:31:21;;;;;;;;;;;19.80;93.90;;;;;;5088932;28;20252;-71
2023/11/21 11:34:13;;;;;;;;;;;19.50;93.60;;;;;;5088529;28;20217;-73
2023/11/21 11:36:48;;;;;;;;;;;19.10;93.50;;;;;;5064697;28;19916;-71
2023/11/21 11:39:30;;;;;;;;;;;18.60;93.40;;;;;;5089208;28;19908;-77
2023/11/21 11:41:56;;;;;;;;;;;18.10;93.40;;;;;;5070004;28;19919;-69
2023/11/21 11:44:46;;;;;;;;;;;17.60;93.40;;;;;;5088434;28;19912;-71
2023/11/21 11:47:15;;;;;;;;;;;17.20;93.40;;;;;;5087486;28;19957;-72
2023/11/21 11:49:59;;;;;;;;;;;16.80;93.20;;;;;;5086778;28;19944;-72
2023/11/21 11:52:38;;;;;;;;;;;16.40;93.30;;;;;;5086955;28;19994;-70
2023/11/21 11:55:04;;;;;;;;;;;16.20;93.40;;;;;;5088683;28;19961;-69
2023/11/21 11:57:34;;;;;;;;;;;15.90;93.50;;;;;;5087994;28;19909;-70
2023/11/21 12:00:18;;;;;;;;;;;15.70;93.50;;;;;;5087293;28;20466;-73
2023/11/21 12:02:47;;;;;;;;;;;15.60;93.50;;;;;;5088388;28;20072;-72
2023/11/21 12:05:14;;;;;;;;;;;15.50;93.40;;;;;;5088611;28;19912;-74
2023/11/21 12:07:44;;;;;;;;;;;15.40;93.30;;;;;;5089388;28;19912;-72
2023/11/21 12:10:11;;;;;;;;;;;15.20;93.20;;;;;;5078568;28;20011;-72
2023/11/21 12:12:38;;;;;;;;;;;15.10;93.20;;;;;;5079186;28;19958;-72
2023/11/21 12:15:05;;;;;;;;;;;15.00;93.10;;;;;;5070245;28;19927;-74
2023/11/21 12:17:30;;;;;;;;;;;14.80;93.00;;;;;;5066631;28;20015;-75
2023/11/21 12:20:03;;;;;;;;;;;14.60;93.00;;;;;;5067978;28;19917;-73
2023/11/21 12:22:28;;;;;;;;;;;14.50;92.90;;;;;;5068788;28;19908;-69
2023/11/21 12:24:54;;;;;;;;;;;14.30;92.90;;;;;;5068512;28;19917;-72
2023/11/21 12:27:21;;;;;;;;;;;14.20;92.90;;;;;;5067256;28;19911;-73
2023/11/21 12:29:46;;;;;;;;;;;14.10;92.90;;;;;;5068160;28;19920;-73
2023/11/21 12:32:15;;;;;;;;;;;14.00;93.00;;;;;;5068393;28;19913;-72
2023/11/21 12:34:40;;;;;;;;;;;14.00;93.10;;;;;;5067873;28;19947;-74
2023/11/21 12:37:06;;;;;;;;;;;14.00;93.20;;;;;;5068141;28;19963;-71
2023/11/21 12:39:32;;;;;;;;;;;14.20;93.20;;;;;;5067926;28;20263;-73
2023/11/21 12:41:58;;;;;;;;;;;14.30;93.10;;;;;;5066457;28;19913;-72
2023/11/21 12:44:23;;;;;;;;;;;14.30;93.00;;;;;;5068435;28;20318;-72
2023/11/21 12:46:50;;;;;;;;;;;14.40;92.90;;;;;;5068212;28;19912;-72
2023/11/21 12:49:18;;;;;;;;;;;14.30;92.80;;;;;;5068017;28;20349;-72
2023/11/21 12:51:46;;;;;;;;;;;14.30;92.70;;;;;;5068099;28;19909;-73
2023/11/21 12:54:12;;;;;;;;;;;14.20;92.70;;;;;;5068498;28;19908;-77
2023/11/21 12:56:41;;;;;;;;;;;14.10;92.70;;;;;;5067872;28;20467;-69
2023/11/21 12:59:07;;;;;;;;;;;14.00;92.60;;;;;;5067722;28;19913;-72
2023/11/21 13:01:34;;;;;;;;;;;14.00;92.60;;;;;;5068749;28;19916;-72
2023/11/21 13:03:59;;;;;;;;;;;13.90;92.70;;;;;;5071879;28;19908;-73
2023/11/21 13:06:26;;;;;;;;;;;13.90;92.70;;;;;;5071610;28;19919;-73
2023/11/21 13:08:52;;;;;;;;;;;13.90;92.70;;;;;;5070336;28;19919;-73
2023/11/21 13:11:17;;;;;;;;;;;13.90;92.70;;;;;;5069842;28;19909;-73
2023/11/21 13:13:43;;;;;;;;;;;13.90;92.60;;;;;;5071517;28;19909;-71
2023/11/21 13:16:09;;;;;;;;;;;13.90;92.60;;;;;;5071543;28;19966;-73
2023/11/21 13:18:35;;;;;;;;;;;13.80;92.50;;;;;;5070741;28;19920;-73
2023/11/21 13:21:10;;;;;;;;;;;13.70;92.50;;;;;;5053231;28;20249;-73
2023/11/21 13:23:38;;;;;;;;;;;13.70;92.50;;;;;;5070158;28;20012;-72
2023/11/21 13:26:04;;;;;;;;;;;13.70;92.60;;;;;;5072601;28;19916;-72
2023/11/21 13:28:32;;;;;;;;;;;13.70;92.60;;;;;;5071461;28;20300;-72
2023/11/21 13:31:02;;;;;;;;;;;13.70;92.60;;;;;;5056140;28;19999;-71
2023/11/21 13:33:28;;;;;;;;;;;13.70;92.70;;;;;;5076631;28;20108;-73
2023/11/21 13:35:56;;;;;;;;;;;13.80;92.70;;;;;;5081451;28;19987;-66
2023/11/21 13:38:22;;;;;;;;;;;13.80;92.60;;;;;;5073095;28;19915;-71
2023/11/21 13:40:49;;;;;;;;;;;13.80;92.70;;;;;;5077410;28;20352;-71
2023/11/21 13:43:16;;;;;;;;;;;13.80;92.70;;;;;;5074706;28;19912;-72
2023/11/21 13:45:42;;;;;;;;;;;13.90;92.80;;;;;;5081331;28;19912;-72
2023/11/21 13:48:13;;;;;;;;;;;13.90;92.80;;;;;;5079461;28;19912;-71
2023/11/21 13:50:44;;;;;;;;;;;14.00;92.90;;;;;;5081305;28;19973;-72
2023/11/21 13:53:22;;;;;;;;;;;14.00;92.80;;;;;;5087451;28;19932;-71
2023/11/21 13:55:51;;;;;;;;;;;13.90;92.80;;;;;;5071086;28;19935;-69
2023/11/21 13:58:23;;;;;;;;;;;13.90;92.70;;;;;;5069613;28;20011;-71
2023/11/21 14:00:56;;;;;;;;;;;13.90;92.80;;;;;;5081203;28;19960;-71
2023/11/21 14:03:23;;;;;;;;;;;13.80;92.80;;;;;;5081336;28;19965;-72
2023/11/21 14:05:51;;;;;;;;;;;13.80;92.80;;;;;;5081563;28;20004;-61
2023/11/21 14:08:21;;;;;;;;;;;13.80;92.90;;;;;;5081745;28;19974;-72
2023/11/21 14:10:50;;;;;;;;;;;13.80;93.00;;;;;;5080045;28;19916;-71
2023/11/21 14:13:17;;;;;;;;;;;13.80;92.90;;;;;;5079598;28;19948;-71
2023/11/21 14:15:45;;;;;;;;;;;13.70;92.80;;;;;;5082338;28;19916;-72
2023/11/21 14:18:14;;;;;;;;;;;13.70;92.70;;;;;;5074842;28;19920;-72
2023/11/21 14:20:42;;;;;;;;;;;13.70;92.70;;;;;;5071053;28;20062;-72
2023/11/21 14:23:08;;;;;;;;;;;13.60;92.60;;;;;;5069785;28;19931;-72
2023/11/21 14:25:34;;;;;;;;;;;13.60;92.60;;;;;;5069685;28;20403;-72